sensor_id;sensor_type;location;lat;lon;timestamp;P1;durP1;ratioP1;P2;durP2;ratioP2
4112;SDS011;2070;51.042;7.056;2022-08-19T00:00:24;17.87;;;14.93;;
4112;SDS011;2070;51.042;7.056;2022-08-19T00:02:49;18.27;;;14.23;;
4112;SDS011;2070;51.042;7.056;2022-08-19T00:05:14;16.70;;;14.00;;
4112;SDS011;2070;51.042;7.056;2022-08-19T00:07:40;19.33;;;14.43;;
4112;SDS011;2070;51.042;7.056;2022-08-19T00:10:06;17.37;;;14.00;;
4112;SDS011;2070;51.042;7.056;2022-08-19T00:12:32;16.63;;;13.30;;
4112;SDS011;2070;51.042;7.056;2022-08-19T00:14:57;18.43;;;15.13;;
4112;SDS011;2070;51.042;7.056;2022-08-19T00:17:23;30.77;;;15.37;;
4112;SDS011;2070;51.042;7.056;2022-08-19T00:19:48;15.40;;;12.30;;
4112;SDS011;2070;51.042;7.056;2022-08-19T00:22:13;22.50;;;13.27;;
4112;SDS011;2070;51.042;7.056;2022-08-19T00:24:39;21.33;;;13.40;;
4112;SDS011;2070;51.042;7.056;2022-08-19T00:27:06;18.37;;;12.83;;
4112;SDS011;2070;51.042;7.056;2022-08-19T00:29:31;19.13;;;13.80;;
4112;SDS011;2070;51.042;7.056;2022-08-19T00:31:57;20.83;;;13.77;;
4112;SDS011;2070;51.042;7.056;2022-08-19T00:34:23;19.60;;;14.13;;
4112;SDS011;2070;51.042;7.056;2022-08-19T00:36:50;20.47;;;15.20;;
4112;SDS011;2070;51.042;7.056;2022-08-19T00:39:15;18.40;;;14.70;;
4112;SDS011;2070;51.042;7.056;2022-08-19T00:41:41;20.90;;;15.30;;
4112;SDS011;2070;51.042;7.056;2022-08-19T00:44:08;19.03;;;14.97;;
4112;SDS011;2070;51.042;7.056;2022-08-19T00:46:35;16.30;;;13.33;;
4112;SDS011;2070;51.042;7.056;2022-08-19T00:49:02;18.37;;;13.27;;
4112;SDS011;2070;51.042;7.056;2022-08-19T00:51:31;17.90;;;13.40;;
4112;SDS011;2070;51.042;7.056;2022-08-19T00:53:57;20.80;;;14.00;;
4112;SDS011;2070;51.042;7.056;2022-08-19T00:56:23;16.90;;;13.57;;
4112;SDS011;2070;51.042;7.056;2022-08-19T00:58:48;22.70;;;14.30;;
4112;SDS011;2070;51.042;7.056;2022-08-19T01:01:14;19.27;;;14.77;;
4112;SDS011;2070;51.042;7.056;2022-08-19T01:03:40;21.30;;;15.53;;
4112;SDS011;2070;51.042;7.056;2022-08-19T01:06:05;19.17;;;14.07;;
4112;SDS011;2070;51.042;7.056;2022-08-19T01:08:30;21.03;;;13.80;;
4112;SDS011;2070;51.042;7.056;2022-08-19T01:10:56;17.40;;;13.07;;
4112;SDS011;2070;51.042;7.056;2022-08-19T01:13:23;19.40;;;14.13;;
4112;SDS011;2070;51.042;7.056;2022-08-19T01:15:54;21.43;;;16.67;;
4112;SDS011;2070;51.042;7.056;2022-08-19T01:18:20;19.70;;;15.13;;
4112;SDS011;2070;51.042;7.056;2022-08-19T01:20:45;20.03;;;15.17;;
4112;SDS011;2070;51.042;7.056;2022-08-19T01:23:11;17.47;;;14.73;;
4112;SDS011;2070;51.042;7.056;2022-08-19T01:25:49;17.53;;;13.00;;
4112;SDS011;2070;51.042;7.056;2022-08-19T01:28:23;29.80;;;15.57;;
4112;SDS011;2070;51.042;7.056;2022-08-19T01:30:50;19.83;;;14.17;;
4112;SDS011;2070;51.042;7.056;2022-08-19T01:33:16;22.43;;;14.80;;
4112;SDS011;2070;51.042;7.056;2022-08-19T01:35:42;18.63;;;14.90;;
4112;SDS011;2070;51.042;7.056;2022-08-19T01:38:09;19.97;;;14.80;;
4112;SDS011;2070;51.042;7.056;2022-08-19T01:40:36;19.00;;;14.97;;
4112;SDS011;2070;51.042;7.056;2022-08-19T01:43:03;18.10;;;14.93;;
4112;SDS011;2070;51.042;7.056;2022-08-19T01:45:29;20.97;;;14.13;;
4112;SDS011;2070;51.042;7.056;2022-08-19T01:47:54;19.10;;;14.83;;
4112;SDS011;2070;51.042;7.056;2022-08-19T01:50:20;20.50;;;14.33;;
4112;SDS011;2070;51.042;7.056;2022-08-19T01:52:46;19.30;;;15.13;;
4112;SDS011;2070;51.042;7.056;2022-08-19T01:55:13;18.67;;;14.07;;
4112;SDS011;2070;51.042;7.056;2022-08-19T01:57:38;19.57;;;14.00;;
4112;SDS011;2070;51.042;7.056;2022-08-19T02:00:05;20.43;;;14.90;;
4112;SDS011;2070;51.042;7.056;2022-08-19T02:02:31;19.23;;;14.13;;
4112;SDS011;2070;51.042;7.056;2022-08-19T02:04:56;16.50;;;13.40;;
4112;SDS011;2070;51.042;7.056;2022-08-19T02:07:22;17.50;;;14.17;;
4112;SDS011;2070;51.042;7.056;2022-08-19T02:09:47;19.07;;;13.93;;
4112;SDS011;2070;51.042;7.056;2022-08-19T02:12:13;18.53;;;12.43;;
4112;SDS011;2070;51.042;7.056;2022-08-19T02:14:39;19.87;;;14.07;;
4112;SDS011;2070;51.042;7.056;2022-08-19T02:17:04;14.80;;;12.00;;
4112;SDS011;2070;51.042;7.056;2022-08-19T02:19:29;17.63;;;12.37;;
4112;SDS011;2070;51.042;7.056;2022-08-19T02:21:57;17.80;;;13.30;;
4112;SDS011;2070;51.042;7.056;2022-08-19T02:24:22;19.90;;;13.20;;
4112;SDS011;2070;51.042;7.056;2022-08-19T02:26:47;21.80;;;13.70;;
4112;SDS011;2070;51.042;7.056;2022-08-19T02:29:13;21.27;;;13.87;;
4112;SDS011;2070;51.042;7.056;2022-08-19T02:31:38;19.83;;;13.77;;
4112;SDS011;2070;51.042;7.056;2022-08-19T02:34:03;20.30;;;12.67;;
4112;SDS011;2070;51.042;7.056;2022-08-19T02:36:28;16.43;;;13.87;;
4112;SDS011;2070;51.042;7.056;2022-08-19T02:38:55;20.60;;;12.87;;
4112;SDS011;2070;51.042;7.056;2022-08-19T02:41:22;15.10;;;13.30;;
4112;SDS011;2070;51.042;7.056;2022-08-19T02:43:47;16.97;;;12.87;;
4112;SDS011;2070;51.042;7.056;2022-08-19T02:46:17;15.83;;;12.77;;
4112;SDS011;2070;51.042;7.056;2022-08-19T02:48:46;14.13;;;11.23;;
4112;SDS011;2070;51.042;7.056;2022-08-19T02:51:15;14.73;;;10.73;;
4112;SDS011;2070;51.042;7.056;2022-08-19T02:53:40;17.67;;;12.70;;
4112;SDS011;2070;51.042;7.056;2022-08-19T02:56:06;16.00;;;11.70;;
4112;SDS011;2070;51.042;7.056;2022-08-19T02:58:31;18.00;;;11.27;;
4112;SDS011;2070;51.042;7.056;2022-08-19T03:00:57;16.93;;;11.53;;
4112;SDS011;2070;51.042;7.056;2022-08-19T03:03:22;25.83;;;10.50;;
4112;SDS011;2070;51.042;7.056;2022-08-19T03:05:48;15.80;;;11.97;;
4112;SDS011;2070;51.042;7.056;2022-08-19T03:08:13;15.13;;;11.70;;
4112;SDS011;2070;51.042;7.056;2022-08-19T03:10:40;16.03;;;12.77;;
4112;SDS011;2070;51.042;7.056;2022-08-19T03:13:07;16.07;;;11.50;;
4112;SDS011;2070;51.042;7.056;2022-08-19T03:15:32;23.93;;;13.13;;
4112;SDS011;2070;51.042;7.056;2022-08-19T03:17:58;16.80;;;12.30;;
4112;SDS011;2070;51.042;7.056;2022-08-19T03:20:23;15.57;;;12.07;;
4112;SDS011;2070;51.042;7.056;2022-08-19T03:22:48;15.63;;;12.13;;
4112;SDS011;2070;51.042;7.056;2022-08-19T03:25:13;16.53;;;11.77;;
4112;SDS011;2070;51.042;7.056;2022-08-19T03:27:38;14.10;;;11.97;;
4112;SDS011;2070;51.042;7.056;2022-08-19T03:30:04;17.67;;;12.97;;
4112;SDS011;2070;51.042;7.056;2022-08-19T03:32:30;15.83;;;12.83;;
4112;SDS011;2070;51.042;7.056;2022-08-19T03:34:56;18.00;;;13.07;;
4112;SDS011;2070;51.042;7.056;2022-08-19T03:37:21;16.20;;;11.80;;
4112;SDS011;2070;51.042;7.056;2022-08-19T03:39:47;17.13;;;13.10;;
4112;SDS011;2070;51.042;7.056;2022-08-19T03:42:12;19.90;;;13.50;;
4112;SDS011;2070;51.042;7.056;2022-08-19T03:44:37;20.80;;;13.63;;
4112;SDS011;2070;51.042;7.056;2022-08-19T03:47:03;18.67;;;12.90;;
4112;SDS011;2070;51.042;7.056;2022-08-19T03:49:29;14.43;;;12.03;;
4112;SDS011;2070;51.042;7.056;2022-08-19T03:51:56;16.50;;;12.93;;
4112;SDS011;2070;51.042;7.056;2022-08-19T03:54:22;17.20;;;13.77;;
4112;SDS011;2070;51.042;7.056;2022-08-19T03:56:48;20.20;;;13.73;;
4112;SDS011;2070;51.042;7.056;2022-08-19T03:59:15;21.10;;;14.80;;
4112;SDS011;2070;51.042;7.056;2022-08-19T04:01:41;17.50;;;13.00;;
4112;SDS011;2070;51.042;7.056;2022-08-19T04:04:07;18.53;;;13.07;;
4112;SDS011;2070;51.042;7.056;2022-08-19T04:06:33;17.57;;;12.93;;
4112;SDS011;2070;51.042;7.056;2022-08-19T04:08:59;16.53;;;13.63;;
4112;SDS011;2070;51.042;7.056;2022-08-19T04:11:27;16.47;;;12.60;;
4112;SDS011;2070;51.042;7.056;2022-08-19T04:13:53;23.00;;;12.50;;
4112;SDS011;2070;51.042;7.056;2022-08-19T04:16:18;19.53;;;13.77;;
4112;SDS011;2070;51.042;7.056;2022-08-19T04:18:45;23.50;;;12.97;;
4112;SDS011;2070;51.042;7.056;2022-08-19T04:21:14;18.60;;;13.30;;
4112;SDS011;2070;51.042;7.056;2022-08-19T04:23:40;15.97;;;12.00;;
4112;SDS011;2070;51.042;7.056;2022-08-19T04:26:05;17.67;;;13.30;;
4112;SDS011;2070;51.042;7.056;2022-08-19T04:28:30;16.83;;;12.20;;
4112;SDS011;2070;51.042;7.056;2022-08-19T04:30:56;15.83;;;13.17;;
4112;SDS011;2070;51.042;7.056;2022-08-19T04:33:23;19.50;;;12.00;;
4112;SDS011;2070;51.042;7.056;2022-08-19T04:35:49;17.70;;;12.20;;
4112;SDS011;2070;51.042;7.056;2022-08-19T04:38:15;18.00;;;11.90;;
4112;SDS011;2070;51.042;7.056;2022-08-19T04:40:45;17.10;;;12.67;;
4112;SDS011;2070;51.042;7.056;2022-08-19T04:43:29;17.73;;;12.33;;
4112;SDS011;2070;51.042;7.056;2022-08-19T04:45:55;17.67;;;12.90;;
4112;SDS011;2070;51.042;7.056;2022-08-19T04:48:20;16.73;;;13.13;;
4112;SDS011;2070;51.042;7.056;2022-08-19T04:50:50;21.07;;;12.37;;
4112;SDS011;2070;51.042;7.056;2022-08-19T04:53:17;17.30;;;12.50;;
4112;SDS011;2070;51.042;7.056;2022-08-19T04:55:42;17.87;;;13.30;;
4112;SDS011;2070;51.042;7.056;2022-08-19T04:58:07;17.70;;;12.17;;
4112;SDS011;2070;51.042;7.056;2022-08-19T05:00:33;17.63;;;12.60;;
4112;SDS011;2070;51.042;7.056;2022-08-19T05:02:58;22.27;;;14.50;;
4112;SDS011;2070;51.042;7.056;2022-08-19T05:05:23;21.00;;;14.43;;
4112;SDS011;2070;51.042;7.056;2022-08-19T05:07:48;21.73;;;13.10;;
4112;SDS011;2070;51.042;7.056;2022-08-19T05:10:14;21.80;;;13.87;;
4112;SDS011;2070;51.042;7.056;2022-08-19T05:12:39;15.70;;;12.07;;
4112;SDS011;2070;51.042;7.056;2022-08-19T05:15:04;19.63;;;14.10;;
4112;SDS011;2070;51.042;7.056;2022-08-19T05:17:31;22.47;;;14.33;;
4112;SDS011;2070;51.042;7.056;2022-08-19T05:19:57;24.20;;;15.20;;
4112;SDS011;2070;51.042;7.056;2022-08-19T05:22:42;21.70;;;14.10;;
4112;SDS011;2070;51.042;7.056;2022-08-19T05:25:08;20.43;;;14.63;;
4112;SDS011;2070;51.042;7.056;2022-08-19T05:27:34;19.00;;;13.90;;
4112;SDS011;2070;51.042;7.056;2022-08-19T05:29:59;18.27;;;12.40;;
4112;SDS011;2070;51.042;7.056;2022-08-19T05:32:25;18.73;;;13.70;;
4112;SDS011;2070;51.042;7.056;2022-08-19T05:34:50;22.07;;;13.40;;
4112;SDS011;2070;51.042;7.056;2022-08-19T05:37:15;21.97;;;15.90;;
4112;SDS011;2070;51.042;7.056;2022-08-19T05:39:41;15.93;;;12.60;;
4112;SDS011;2070;51.042;7.056;2022-08-19T05:42:08;24.77;;;15.03;;
4112;SDS011;2070;51.042;7.056;2022-08-19T05:44:34;33.23;;;15.30;;
4112;SDS011;2070;51.042;7.056;2022-08-19T05:47:01;22.37;;;14.03;;
4112;SDS011;2070;51.042;7.056;2022-08-19T05:49:27;20.67;;;13.13;;
4112;SDS011;2070;51.042;7.056;2022-08-19T05:51:53;17.27;;;14.47;;
4112;SDS011;2070;51.042;7.056;2022-08-19T05:54:20;23.03;;;15.50;;
4112;SDS011;2070;51.042;7.056;2022-08-19T05:56:46;22.23;;;15.00;;
4112;SDS011;2070;51.042;7.056;2022-08-19T05:59:13;24.20;;;14.47;;
4112;SDS011;2070;51.042;7.056;2022-08-19T06:01:40;17.53;;;13.27;;
4112;SDS011;2070;51.042;7.056;2022-08-19T06:04:05;22.80;;;15.63;;
4112;SDS011;2070;51.042;7.056;2022-08-19T06:06:31;22.83;;;17.10;;
4112;SDS011;2070;51.042;7.056;2022-08-19T06:08:59;22.20;;;15.57;;
4112;SDS011;2070;51.042;7.056;2022-08-19T06:12:09;29.33;;;17.87;;
4112;SDS011;2070;51.042;7.056;2022-08-19T06:14:17;36.20;;;23.03;;
4112;SDS011;2070;51.042;7.056;2022-08-19T06:16:43;32.43;;;20.90;;
4112;SDS011;2070;51.042;7.056;2022-08-19T06:19:10;45.07;;;25.07;;
4112;SDS011;2070;51.042;7.056;2022-08-19T06:21:37;46.20;;;26.17;;
4112;SDS011;2070;51.042;7.056;2022-08-19T06:24:04;37.27;;;24.20;;
4112;SDS011;2070;51.042;7.056;2022-08-19T06:26:29;45.33;;;28.20;;
4112;SDS011;2070;51.042;7.056;2022-08-19T06:28:55;51.80;;;31.37;;
4112;SDS011;2070;51.042;7.056;2022-08-19T06:31:23;46.40;;;29.53;;
4112;SDS011;2070;51.042;7.056;2022-08-19T06:33:48;50.00;;;31.30;;
4112;SDS011;2070;51.042;7.056;2022-08-19T06:36:18;49.30;;;30.37;;
4112;SDS011;2070;51.042;7.056;2022-08-19T06:38:43;57.20;;;31.90;;
4112;SDS011;2070;51.042;7.056;2022-08-19T06:41:08;60.70;;;34.90;;
4112;SDS011;2070;51.042;7.056;2022-08-19T06:43:35;55.00;;;33.30;;
4112;SDS011;2070;51.042;7.056;2022-08-19T06:46:01;49.60;;;30.90;;
4112;SDS011;2070;51.042;7.056;2022-08-19T06:48:26;51.13;;;29.70;;
4112;SDS011;2070;51.042;7.056;2022-08-19T06:50:51;55.20;;;30.93;;
4112;SDS011;2070;51.042;7.056;2022-08-19T06:53:17;53.67;;;30.93;;
4112;SDS011;2070;51.042;7.056;2022-08-19T06:55:44;64.27;;;31.40;;
4112;SDS011;2070;51.042;7.056;2022-08-19T06:58:09;82.93;;;29.50;;
4112;SDS011;2070;51.042;7.056;2022-08-19T07:00:34;47.80;;;31.40;;
4112;SDS011;2070;51.042;7.056;2022-08-19T07:02:59;49.83;;;30.60;;
4112;SDS011;2070;51.042;7.056;2022-08-19T07:05:25;74.43;;;41.00;;
4112;SDS011;2070;51.042;7.056;2022-08-19T07:07:50;51.77;;;30.90;;
4112;SDS011;2070;51.042;7.056;2022-08-19T07:10:15;50.00;;;28.40;;
4112;SDS011;2070;51.042;7.056;2022-08-19T07:12:41;58.47;;;32.47;;
4112;SDS011;2070;51.042;7.056;2022-08-19T07:15:06;47.20;;;29.87;;
4112;SDS011;2070;51.042;7.056;2022-08-19T07:17:33;50.93;;;28.10;;
4112;SDS011;2070;51.042;7.056;2022-08-19T07:20:02;49.53;;;29.40;;
4112;SDS011;2070;51.042;7.056;2022-08-19T07:22:27;51.03;;;28.17;;
4112;SDS011;2070;51.042;7.056;2022-08-19T07:24:53;44.10;;;27.43;;
4112;SDS011;2070;51.042;7.056;2022-08-19T07:27:18;53.83;;;28.53;;
4112;SDS011;2070;51.042;7.056;2022-08-19T07:29:44;50.50;;;25.30;;
4112;SDS011;2070;51.042;7.056;2022-08-19T07:32:10;44.83;;;26.80;;
4112;SDS011;2070;51.042;7.056;2022-08-19T07:34:36;53.40;;;28.77;;
4112;SDS011;2070;51.042;7.056;2022-08-19T07:37:03;42.10;;;25.53;;
4112;SDS011;2070;51.042;7.056;2022-08-19T07:39:30;43.03;;;25.53;;
4112;SDS011;2070;51.042;7.056;2022-08-19T07:41:56;43.13;;;26.63;;
4112;SDS011;2070;51.042;7.056;2022-08-19T07:44:22;51.63;;;26.83;;
4112;SDS011;2070;51.042;7.056;2022-08-19T07:46:49;45.03;;;23.97;;
4112;SDS011;2070;51.042;7.056;2022-08-19T07:49:16;36.60;;;24.60;;
4112;SDS011;2070;51.042;7.056;2022-08-19T07:51:51;37.43;;;23.33;;
4112;SDS011;2070;51.042;7.056;2022-08-19T07:54:17;36.67;;;23.40;;
4112;SDS011;2070;51.042;7.056;2022-08-19T07:56:43;37.00;;;22.10;;
4112;SDS011;2070;51.042;7.056;2022-08-19T07:59:08;30.10;;;20.93;;
4112;SDS011;2070;51.042;7.056;2022-08-19T08:01:34;36.97;;;19.00;;
4112;SDS011;2070;51.042;7.056;2022-08-19T08:03:59;34.80;;;21.50;;
4112;SDS011;2070;51.042;7.056;2022-08-19T08:06:43;29.17;;;20.67;;
4112;SDS011;2070;51.042;7.056;2022-08-19T08:09:29;36.83;;;23.80;;
4112;SDS011;2070;51.042;7.056;2022-08-19T08:12:02;29.97;;;20.50;;
4112;SDS011;2070;51.042;7.056;2022-08-19T08:14:32;35.77;;;23.00;;
4112;SDS011;2070;51.042;7.056;2022-08-19T08:16:58;39.33;;;21.70;;
4112;SDS011;2070;51.042;7.056;2022-08-19T08:19:24;29.97;;;19.03;;
4112;SDS011;2070;51.042;7.056;2022-08-19T08:21:50;44.43;;;21.60;;
4112;SDS011;2070;51.042;7.056;2022-08-19T08:24:16;24.10;;;15.97;;
4112;SDS011;2070;51.042;7.056;2022-08-19T08:26:41;26.57;;;17.20;;
4112;SDS011;2070;51.042;7.056;2022-08-19T08:29:08;31.50;;;19.80;;
4112;SDS011;2070;51.042;7.056;2022-08-19T08:31:35;24.97;;;15.47;;
4112;SDS011;2070;51.042;7.056;2022-08-19T08:34:00;33.30;;;17.70;;
4112;SDS011;2070;51.042;7.056;2022-08-19T08:36:25;32.23;;;17.83;;
4112;SDS011;2070;51.042;7.056;2022-08-19T08:38:52;30.20;;;17.87;;
4112;SDS011;2070;51.042;7.056;2022-08-19T08:44:58;33.87;;;19.97;;
4112;SDS011;2070;51.042;7.056;2022-08-19T08:47:04;26.53;;;18.43;;
4112;SDS011;2070;51.042;7.056;2022-08-19T08:54:38;33.07;;;18.57;;
4112;SDS011;2070;51.042;7.056;2022-08-19T08:57:07;30.20;;;16.23;;
4112;SDS011;2070;51.042;7.056;2022-08-19T08:59:38;32.33;;;16.57;;
4112;SDS011;2070;51.042;7.056;2022-08-19T09:02:04;23.63;;;17.03;;
4112;SDS011;2070;51.042;7.056;2022-08-19T09:04:29;31.33;;;17.70;;
4112;SDS011;2070;51.042;7.056;2022-08-19T09:06:57;26.97;;;17.90;;
4112;SDS011;2070;51.042;7.056;2022-08-19T09:17:11;36.97;;;22.07;;
4112;SDS011;2070;51.042;7.056;2022-08-19T09:19:53;34.57;;;19.13;;
4112;SDS011;2070;51.042;7.056;2022-08-19T09:22:19;37.40;;;18.10;;
4112;SDS011;2070;51.042;7.056;2022-08-19T09:24:47;37.53;;;22.27;;
4112;SDS011;2070;51.042;7.056;2022-08-19T09:27:12;45.27;;;23.10;;
4112;SDS011;2070;51.042;7.056;2022-08-19T09:29:37;44.30;;;20.77;;
4112;SDS011;2070;51.042;7.056;2022-08-19T09:32:02;36.40;;;20.33;;
4112;SDS011;2070;51.042;7.056;2022-08-19T09:34:28;52.03;;;21.47;;
4112;SDS011;2070;51.042;7.056;2022-08-19T09:36:54;31.97;;;19.90;;
4112;SDS011;2070;51.042;7.056;2022-08-19T09:39:23;38.60;;;21.33;;
4112;SDS011;2070;51.042;7.056;2022-08-19T09:41:48;46.37;;;24.87;;
4112;SDS011;2070;51.042;7.056;2022-08-19T09:44:14;46.57;;;19.57;;
4112;SDS011;2070;51.042;7.056;2022-08-19T09:46:39;42.20;;;20.73;;
4112;SDS011;2070;51.042;7.056;2022-08-19T09:49:05;38.20;;;22.27;;
4112;SDS011;2070;51.042;7.056;2022-08-19T09:51:31;36.00;;;21.27;;
4112;SDS011;2070;51.042;7.056;2022-08-19T09:53:58;42.90;;;21.77;;
4112;SDS011;2070;51.042;7.056;2022-08-19T09:56:24;44.00;;;21.93;;
4112;SDS011;2070;51.042;7.056;2022-08-19T09:58:49;37.37;;;21.90;;
4112;SDS011;2070;51.042;7.056;2022-08-19T10:01:18;28.97;;;17.90;;
4112;SDS011;2070;51.042;7.056;2022-08-19T10:03:46;39.03;;;19.53;;
4112;SDS011;2070;51.042;7.056;2022-08-19T10:06:12;29.70;;;15.93;;
4112;SDS011;2070;51.042;7.056;2022-08-19T10:08:37;27.03;;;17.93;;
4112;SDS011;2070;51.042;7.056;2022-08-19T10:11:04;59.47;;;19.93;;
4112;SDS011;2070;51.042;7.056;2022-08-19T10:13:30;30.17;;;14.00;;
4112;SDS011;2070;51.042;7.056;2022-08-19T10:16:01;18.33;;;11.67;;
4112;SDS011;2070;51.042;7.056;2022-08-19T10:18:27;24.57;;;15.37;;
4112;SDS011;2070;51.042;7.056;2022-08-19T10:21:01;19.20;;;13.03;;
4112;SDS011;2070;51.042;7.056;2022-08-19T10:23:27;27.00;;;14.67;;
4112;SDS011;2070;51.042;7.056;2022-08-19T10:25:55;27.27;;;16.27;;
4112;SDS011;2070;51.042;7.056;2022-08-19T10:28:24;20.40;;;11.30;;
4112;SDS011;2070;51.042;7.056;2022-08-19T10:30:49;30.83;;;13.63;;
4112;SDS011;2070;51.042;7.056;2022-08-19T10:33:14;28.93;;;15.47;;
4112;SDS011;2070;51.042;7.056;2022-08-19T10:35:40;25.27;;;15.20;;
4112;SDS011;2070;51.042;7.056;2022-08-19T10:38:05;23.20;;;13.60;;
4112;SDS011;2070;51.042;7.056;2022-08-19T10:40:30;20.13;;;11.27;;
4112;SDS011;2070;51.042;7.056;2022-08-19T10:42:55;25.03;;;9.30;;
4112;SDS011;2070;51.042;7.056;2022-08-19T10:45:21;23.43;;;9.90;;
4112;SDS011;2070;51.042;7.056;2022-08-19T10:47:51;25.50;;;14.17;;
4112;SDS011;2070;51.042;7.056;2022-08-19T10:50:17;24.13;;;10.67;;
4112;SDS011;2070;51.042;7.056;2022-08-19T10:53:05;24.27;;;13.17;;
4112;SDS011;2070;51.042;7.056;2022-08-19T10:55:30;22.10;;;14.03;;
4112;SDS011;2070;51.042;7.056;2022-08-19T10:58:15;23.80;;;11.53;;
4112;SDS011;2070;51.042;7.056;2022-08-19T11:00:41;19.80;;;11.97;;
4112;SDS011;2070;51.042;7.056;2022-08-19T11:03:08;21.50;;;13.13;;
4112;SDS011;2070;51.042;7.056;2022-08-19T11:05:33;18.83;;;12.10;;
4112;SDS011;2070;51.042;7.056;2022-08-19T11:07:58;20.57;;;10.80;;
4112;SDS011;2070;51.042;7.056;2022-08-19T11:10:24;18.50;;;11.80;;
4112;SDS011;2070;51.042;7.056;2022-08-19T11:12:49;17.93;;;10.43;;
4112;SDS011;2070;51.042;7.056;2022-08-19T11:15:18;19.50;;;12.40;;
4112;SDS011;2070;51.042;7.056;2022-08-19T11:17:43;19.13;;;10.33;;
4112;SDS011;2070;51.042;7.056;2022-08-19T11:20:09;27.60;;;11.17;;
4112;SDS011;2070;51.042;7.056;2022-08-19T11:22:34;16.83;;;9.60;;
4112;SDS011;2070;51.042;7.056;2022-08-19T11:24:59;13.23;;;8.93;;
4112;SDS011;2070;51.042;7.056;2022-08-19T11:27:25;21.03;;;9.90;;
4112;SDS011;2070;51.042;7.056;2022-08-19T11:29:50;14.57;;;9.37;;
4112;SDS011;2070;51.042;7.056;2022-08-19T11:32:17;18.50;;;10.27;;
4112;SDS011;2070;51.042;7.056;2022-08-19T11:34:43;26.00;;;11.97;;
4112;SDS011;2070;51.042;7.056;2022-08-19T11:37:08;23.80;;;10.43;;
4112;SDS011;2070;51.042;7.056;2022-08-19T11:39:34;18.80;;;11.10;;
4112;SDS011;2070;51.042;7.056;2022-08-19T11:42:00;15.73;;;10.20;;
4112;SDS011;2070;51.042;7.056;2022-08-19T11:44:27;17.60;;;9.30;;
4112;SDS011;2070;51.042;7.056;2022-08-19T11:46:55;16.37;;;9.10;;
4112;SDS011;2070;51.042;7.056;2022-08-19T11:49:21;13.60;;;9.20;;
4112;SDS011;2070;51.042;7.056;2022-08-19T11:51:46;17.40;;;10.33;;
4112;SDS011;2070;51.042;7.056;2022-08-19T11:54:12;15.60;;;9.33;;
4112;SDS011;2070;51.042;7.056;2022-08-19T11:56:38;28.87;;;15.50;;
4112;SDS011;2070;51.042;7.056;2022-08-19T11:59:03;13.47;;;8.90;;
4112;SDS011;2070;51.042;7.056;2022-08-19T12:01:28;16.00;;;9.07;;
4112;SDS011;2070;51.042;7.056;2022-08-19T12:03:54;13.43;;;8.00;;
4112;SDS011;2070;51.042;7.056;2022-08-19T12:06:24;22.90;;;8.60;;
4112;SDS011;2070;51.042;7.056;2022-08-19T12:08:54;16.53;;;9.13;;
4112;SDS011;2070;51.042;7.056;2022-08-19T12:11:20;18.47;;;9.63;;
4112;SDS011;2070;51.042;7.056;2022-08-19T12:13:45;22.97;;;9.23;;
4112;SDS011;2070;51.042;7.056;2022-08-19T12:16:16;11.57;;;7.50;;
4112;SDS011;2070;51.042;7.056;2022-08-19T12:18:42;15.53;;;9.83;;
4112;SDS011;2070;51.042;7.056;2022-08-19T12:21:10;17.07;;;9.67;;
4112;SDS011;2070;51.042;7.056;2022-08-19T12:23:38;12.87;;;8.37;;
4112;SDS011;2070;51.042;7.056;2022-08-19T12:26:03;19.13;;;10.20;;
4112;SDS011;2070;51.042;7.056;2022-08-19T12:28:29;10.97;;;8.33;;
4112;SDS011;2070;51.042;7.056;2022-08-19T12:30:55;11.30;;;8.03;;
4112;SDS011;2070;51.042;7.056;2022-08-19T12:33:21;25.53;;;7.40;;
4112;SDS011;2070;51.042;7.056;2022-08-19T12:35:49;12.17;;;7.63;;
4112;SDS011;2070;51.042;7.056;2022-08-19T12:38:15;8.53;;;7.10;;
4112;SDS011;2070;51.042;7.056;2022-08-19T12:40:40;11.80;;;7.77;;
4112;SDS011;2070;51.042;7.056;2022-08-19T12:43:06;10.83;;;8.00;;
4112;SDS011;2070;51.042;7.056;2022-08-19T12:45:31;7.63;;;5.83;;
4112;SDS011;2070;51.042;7.056;2022-08-19T12:47:56;9.53;;;6.50;;
4112;SDS011;2070;51.042;7.056;2022-08-19T12:50:22;19.43;;;5.80;;
4112;SDS011;2070;51.042;7.056;2022-08-19T12:52:47;9.47;;;6.20;;
4112;SDS011;2070;51.042;7.056;2022-08-19T12:55:13;6.03;;;5.10;;
4112;SDS011;2070;51.042;7.056;2022-08-19T12:57:38;10.40;;;5.73;;
4112;SDS011;2070;51.042;7.056;2022-08-19T13:02:31;14.83;;;6.83;;
4112;SDS011;2070;51.042;7.056;2022-08-19T13:04:57;8.87;;;5.97;;
4112;SDS011;2070;51.042;7.056;2022-08-19T13:07:23;10.93;;;6.20;;
4112;SDS011;2070;51.042;7.056;2022-08-19T13:09:50;13.97;;;7.03;;
4112;SDS011;2070;51.042;7.056;2022-08-19T13:12:16;11.50;;;5.97;;
4112;SDS011;2070;51.042;7.056;2022-08-19T13:14:42;16.90;;;6.80;;
4112;SDS011;2070;51.042;7.056;2022-08-19T13:17:07;12.70;;;6.27;;
4112;SDS011;2070;51.042;7.056;2022-08-19T13:19:35;18.43;;;7.57;;
4112;SDS011;2070;51.042;7.056;2022-08-19T13:22:01;14.17;;;7.10;;
4112;SDS011;2070;51.042;7.056;2022-08-19T13:24:26;14.90;;;7.83;;
4112;SDS011;2070;51.042;7.056;2022-08-19T13:26:51;11.37;;;7.20;;
4112;SDS011;2070;51.042;7.056;2022-08-19T13:29:16;20.47;;;7.70;;
4112;SDS011;2070;51.042;7.056;2022-08-19T13:32:00;10.10;;;6.07;;
4112;SDS011;2070;51.042;7.056;2022-08-19T13:34:44;10.00;;;6.63;;
4112;SDS011;2070;51.042;7.056;2022-08-19T13:37:11;13.00;;;6.90;;
4112;SDS011;2070;51.042;7.056;2022-08-19T13:39:36;16.83;;;6.40;;
4112;SDS011;2070;51.042;7.056;2022-08-19T13:42:02;24.13;;;6.60;;
4112;SDS011;2070;51.042;7.056;2022-08-19T13:44:29;12.60;;;7.27;;
4112;SDS011;2070;51.042;7.056;2022-08-19T13:46:54;12.53;;;6.77;;
4112;SDS011;2070;51.042;7.056;2022-08-19T13:49:19;9.93;;;6.23;;
4112;SDS011;2070;51.042;7.056;2022-08-19T13:51:45;11.60;;;6.03;;
4112;SDS011;2070;51.042;7.056;2022-08-19T13:54:11;15.27;;;6.83;;
4112;SDS011;2070;51.042;7.056;2022-08-19T13:56:40;9.33;;;5.33;;
4112;SDS011;2070;51.042;7.056;2022-08-19T13:59:06;8.87;;;5.40;;
4112;SDS011;2070;51.042;7.056;2022-08-19T14:01:31;12.07;;;5.80;;
4112;SDS011;2070;51.042;7.056;2022-08-19T14:03:56;10.80;;;4.73;;
4112;SDS011;2070;51.042;7.056;2022-08-19T14:06:22;7.47;;;4.47;;
4112;SDS011;2070;51.042;7.056;2022-08-19T14:08:47;21.20;;;6.30;;
4112;SDS011;2070;51.042;7.056;2022-08-19T14:11:13;11.40;;;4.80;;
4112;SDS011;2070;51.042;7.056;2022-08-19T14:13:38;11.40;;;4.67;;
4112;SDS011;2070;51.042;7.056;2022-08-19T14:16:11;12.27;;;5.20;;
4112;SDS011;2070;51.042;7.056;2022-08-19T14:18:36;12.17;;;6.20;;
4112;SDS011;2070;51.042;7.056;2022-08-19T14:21:02;9.67;;;5.10;;
4112;SDS011;2070;51.042;7.056;2022-08-19T14:23:29;9.93;;;4.77;;
4112;SDS011;2070;51.042;7.056;2022-08-19T14:26:02;10.73;;;4.30;;
4112;SDS011;2070;51.042;7.056;2022-08-19T14:28:28;7.40;;;4.50;;
4112;SDS011;2070;51.042;7.056;2022-08-19T14:30:53;12.50;;;5.07;;
4112;SDS011;2070;51.042;7.056;2022-08-19T14:33:19;9.87;;;5.30;;
4112;SDS011;2070;51.042;7.056;2022-08-19T14:35:44;10.60;;;5.50;;
4112;SDS011;2070;51.042;7.056;2022-08-19T14:38:14;10.33;;;4.57;;
4112;SDS011;2070;51.042;7.056;2022-08-19T14:40:40;9.60;;;5.70;;
4112;SDS011;2070;51.042;7.056;2022-08-19T14:43:06;5.10;;;3.53;;
4112;SDS011;2070;51.042;7.056;2022-08-19T14:45:33;13.90;;;4.70;;
4112;SDS011;2070;51.042;7.056;2022-08-19T14:47:59;9.53;;;4.47;;
4112;SDS011;2070;51.042;7.056;2022-08-19T14:50:25;16.13;;;6.40;;
4112;SDS011;2070;51.042;7.056;2022-08-19T14:52:56;5.73;;;3.77;;
4112;SDS011;2070;51.042;7.056;2022-08-19T14:55:22;8.37;;;3.90;;
4112;SDS011;2070;51.042;7.056;2022-08-19T14:57:47;6.60;;;4.30;;
4112;SDS011;2070;51.042;7.056;2022-08-19T15:00:12;8.27;;;3.77;;
4112;SDS011;2070;51.042;7.056;2022-08-19T15:02:38;16.97;;;4.53;;
4112;SDS011;2070;51.042;7.056;2022-08-19T15:05:03;9.13;;;3.80;;
4112;SDS011;2070;51.042;7.056;2022-08-19T15:07:29;6.23;;;3.67;;